sensor_id;sensor_type;location;lat;lon;timestamp;pressure;altitude;pressure_sealevel;temperature;humidity
71109;BME280;59614;51.012;-1.648;2023-07-30T00:01:37;100129.88;;;17.19;79.25
71109;BME280;59614;51.012;-1.648;2023-07-30T00:04:02;100122.75;;;17.19;79.36
71109;BME280;59614;51.012;-1.648;2023-07-30T00:06:28;100116.81;;;16.95;78.71
71109;BME280;59614;51.012;-1.648;2023-07-30T00:08:53;100120.66;;;17.07;78.67
71109;BME280;59614;51.012;-1.648;2023-07-30T00:11:18;100124.41;;;16.83;78.83
71109;BME280;59614;51.012;-1.648;2023-07-30T00:13:44;100122.69;;;16.82;77.79
71109;BME280;59614;51.012;-1.648;2023-07-30T00:16:09;100123.47;;;16.85;78.83
71109;BME280;59614;51.012;-1.648;2023-07-30T00:18:35;100126.16;;;17.04;79.18
71109;BME280;59614;51.012;-1.648;2023-07-30T00:21:00;100126.41;;;16.78;77.72
71109;BME280;59614;51.012;-1.648;2023-07-30T00:23:25;100111.47;;;16.95;78.49
71109;BME280;59614;51.012;-1.648;2023-07-30T00:25:51;100112.09;;;17.00;78.81
71109;BME280;59614;51.012;-1.648;2023-07-30T00:28:16;100113.91;;;16.80;78.36
71109;BME280;59614;51.012;-1.648;2023-07-30T00:30:42;100107.50;;;16.85;78.91
71109;BME280;59614;51.012;-1.648;2023-07-30T00:33:07;100110.88;;;16.88;78.91
71109;BME280;59614;51.012;-1.648;2023-07-30T00:35:32;100099.34;;;16.88;78.82
71109;BME280;59614;51.012;-1.648;2023-07-30T00:37:58;100109.78;;;16.92;79.41
71109;BME280;59614;51.012;-1.648;2023-07-30T00:40:23;100113.03;;;16.80;78.71
71109;BME280;59614;51.012;-1.648;2023-07-30T00:42:49;100123.56;;;16.64;80.10
71109;BME280;59614;51.012;-1.648;2023-07-30T00:45:15;100126.28;;;16.62;79.87
71109;BME280;59614;51.012;-1.648;2023-07-30T00:47:40;100126.28;;;16.62;80.67
71109;BME280;59614;51.012;-1.648;2023-07-30T00:50:07;100122.09;;;16.57;80.45
71109;BME280;59614;51.012;-1.648;2023-07-30T00:52:33;100124.97;;;16.52;79.68
71109;BME280;59614;51.012;-1.648;2023-07-30T00:55:02;100132.16;;;16.31;79.56
71109;BME280;59614;51.012;-1.648;2023-07-30T00:57:27;100120.00;;;16.44;80.83
71109;BME280;59614;51.012;-1.648;2023-07-30T00:59:53;100130.13;;;16.36;80.40
71109;BME280;59614;51.012;-1.648;2023-07-30T01:02:20;100129.66;;;16.47;80.35
71109;BME280;59614;51.012;-1.648;2023-07-30T01:04:46;100137.34;;;16.34;80.21
71109;BME280;59614;51.012;-1.648;2023-07-30T01:07:11;100137.34;;;16.34;81.15
71109;BME280;59614;51.012;-1.648;2023-07-30T01:09:37;100140.94;;;16.33;80.79
71109;BME280;59614;51.012;-1.648;2023-07-30T01:12:03;100129.97;;;16.20;80.74
71109;BME280;59614;51.012;-1.648;2023-07-30T01:14:30;100135.72;;;16.11;82.20
71109;BME280;59614;51.012;-1.648;2023-07-30T01:16:56;100138.69;;;16.24;82.52
71109;BME280;59614;51.012;-1.648;2023-07-30T01:19:22;100141.69;;;16.36;82.32
71109;BME280;59614;51.012;-1.648;2023-07-30T01:21:47;100140.78;;;16.36;82.49
71109;BME280;59614;51.012;-1.648;2023-07-30T01:24:13;100148.41;;;16.25;81.94
71109;BME280;59614;51.012;-1.648;2023-07-30T01:26:47;100149.06;;;16.30;81.18
71109;BME280;59614;51.012;-1.648;2023-07-30T01:29:19;100150.41;;;16.19;81.86
71109;BME280;59614;51.012;-1.648;2023-07-30T01:31:57;100150.13;;;16.26;81.04
71109;BME280;59614;51.012;-1.648;2023-07-30T01:34:24;100157.28;;;16.44;82.64
71109;BME280;59614;51.012;-1.648;2023-07-30T01:36:53;100168.53;;;16.51;82.19
71109;BME280;59614;51.012;-1.648;2023-07-30T01:39:19;100166.16;;;16.45;82.54
71109;BME280;59614;51.012;-1.648;2023-07-30T01:41:45;100156.06;;;16.32;82.20
71109;BME280;59614;51.012;-1.648;2023-07-30T01:44:10;100157.59;;;16.17;82.41
71109;BME280;59614;51.012;-1.648;2023-07-30T01:46:35;100154.94;;;16.17;83.38
71109;BME280;59614;51.012;-1.648;2023-07-30T01:49:01;100151.34;;;16.18;83.78
71109;BME280;59614;51.012;-1.648;2023-07-30T01:51:26;100157.13;;;16.08;83.31
71109;BME280;59614;51.012;-1.648;2023-07-30T01:53:52;100158.63;;;16.15;84.17
71109;BME280;59614;51.012;-1.648;2023-07-30T01:56:17;100150.56;;;16.16;84.36
71109;BME280;59614;51.012;-1.648;2023-07-30T01:58:42;100155.34;;;15.87;83.60
71109;BME280;59614;51.012;-1.648;2023-07-30T02:01:08;100154.75;;;15.79;84.17
71109;BME280;59614;51.012;-1.648;2023-07-30T02:03:34;100154.69;;;16.03;83.96
71109;BME280;59614;51.012;-1.648;2023-07-30T02:05:59;100164.47;;;16.23;83.39
71109;BME280;59614;51.012;-1.648;2023-07-30T02:08:24;100160.53;;;16.11;83.65
71109;BME280;59614;51.012;-1.648;2023-07-30T02:10:57;100152.94;;;16.02;83.72
71109;BME280;59614;51.012;-1.648;2023-07-30T02:13:24;100162.25;;;15.92;82.80
71109;BME280;59614;51.012;-1.648;2023-07-30T02:15:49;100169.31;;;15.93;84.42
71109;BME280;59614;51.012;-1.648;2023-07-30T02:18:15;100166.66;;;16.13;84.33
71109;BME280;59614;51.012;-1.648;2023-07-30T02:20:40;100175.03;;;16.04;84.17
71109;BME280;59614;51.012;-1.648;2023-07-30T02:23:07;100176.97;;;16.00;83.95
71109;BME280;59614;51.012;-1.648;2023-07-30T02:25:32;100179.69;;;15.99;83.87
71109;BME280;59614;51.012;-1.648;2023-07-30T02:27:59;100178.09;;;15.95;84.07
71109;BME280;59614;51.012;-1.648;2023-07-30T02:30:24;100186.75;;;16.00;84.06
71109;BME280;59614;51.012;-1.648;2023-07-30T02:32:50;100177.31;;;15.93;84.61
71109;BME280;59614;51.012;-1.648;2023-07-30T02:35:15;100174.56;;;15.94;84.58
71109;BME280;59614;51.012;-1.648;2023-07-30T02:37:41;100181.81;;;15.90;84.09
71109;BME280;59614;51.012;-1.648;2023-07-30T02:40:07;100187.03;;;15.94;84.37
71109;BME280;59614;51.012;-1.648;2023-07-30T02:42:32;100176.78;;;15.84;84.23
71109;BME280;59614;51.012;-1.648;2023-07-30T02:44:57;100185.41;;;15.89;85.16
71109;BME280;59614;51.012;-1.648;2023-07-30T02:47:23;100176.66;;;15.87;84.64
71109;BME280;59614;51.012;-1.648;2023-07-30T02:49:48;100176.25;;;15.97;85.41
71109;BME280;59614;51.012;-1.648;2023-07-30T02:52:14;100178.72;;;15.79;85.28
71109;BME280;59614;51.012;-1.648;2023-07-30T02:54:39;100174.63;;;15.93;85.08
71109;BME280;59614;51.012;-1.648;2023-07-30T02:57:05;100175.97;;;16.03;85.66
71109;BME280;59614;51.012;-1.648;2023-07-30T02:59:30;100170.78;;;16.00;85.16
71109;BME280;59614;51.012;-1.648;2023-07-30T03:01:55;100174.44;;;15.97;84.64
71109;BME280;59614;51.012;-1.648;2023-07-30T03:04:21;100173.59;;;15.97;85.15
71109;BME280;59614;51.012;-1.648;2023-07-30T03:06:46;100163.72;;;15.99;85.48
71109;BME280;59614;51.012;-1.648;2023-07-30T03:09:12;100172.78;;;15.95;84.92
71109;BME280;59614;51.012;-1.648;2023-07-30T03:11:37;100179.03;;;15.94;84.60
71109;BME280;59614;51.012;-1.648;2023-07-30T03:14:02;100181.31;;;15.81;84.53
71109;BME280;59614;51.012;-1.648;2023-07-30T03:16:28;100173.22;;;16.04;85.32
71109;BME280;59614;51.012;-1.648;2023-07-30T03:18:53;100168.78;;;16.05;85.07
71109;BME280;59614;51.012;-1.648;2023-07-30T03:21:19;100170.66;;;16.03;84.89
71109;BME280;59614;51.012;-1.648;2023-07-30T03:23:44;100187.13;;;15.90;85.08
71109;BME280;59614;51.012;-1.648;2023-07-30T03:26:11;100180.25;;;15.86;85.20
71109;BME280;59614;51.012;-1.648;2023-07-30T03:28:36;100178.78;;;15.78;85.72
71109;BME280;59614;51.012;-1.648;2023-07-30T03:31:02;100187.78;;;15.75;85.98
71109;BME280;59614;51.012;-1.648;2023-07-30T03:33:27;100189.59;;;15.52;85.80
71109;BME280;59614;51.012;-1.648;2023-07-30T03:35:52;100177.25;;;15.50;86.49
71109;BME280;59614;51.012;-1.648;2023-07-30T03:38:18;100178.03;;;15.53;86.73
71109;BME280;59614;51.012;-1.648;2023-07-30T03:40:43;100194.09;;;15.50;87.09
71109;BME280;59614;51.012;-1.648;2023-07-30T03:43:08;100189.16;;;15.41;86.59
71109;BME280;59614;51.012;-1.648;2023-07-30T03:45:34;100180.66;;;15.31;87.15
71109;BME280;59614;51.012;-1.648;2023-07-30T03:47:59;100196.94;;;15.23;87.33
71109;BME280;59614;51.012;-1.648;2023-07-30T03:50:25;100191.88;;;15.17;88.14
71109;BME280;59614;51.012;-1.648;2023-07-30T03:52:50;100191.72;;;15.20;87.81
71109;BME280;59614;51.012;-1.648;2023-07-30T03:55:15;100192.53;;;15.22;88.02
71109;BME280;59614;51.012;-1.648;2023-07-30T03:57:41;100199.66;;;15.22;87.90
71109;BME280;59614;51.012;-1.648;2023-07-30T04:00:07;100198.22;;;15.13;88.21
71109;BME280;59614;51.012;-1.648;2023-07-30T04:02:32;100196.38;;;15.15;88.49
71109;BME280;59614;51.012;-1.648;2023-07-30T04:04:58;100204.56;;;15.09;87.96
71109;BME280;59614;51.012;-1.648;2023-07-30T04:07:23;100209.88;;;15.09;88.80
71109;BME280;59614;51.012;-1.648;2023-07-30T04:09:48;100207.81;;;15.17;88.91
71109;BME280;59614;51.012;-1.648;2023-07-30T04:12:14;100208.47;;;15.22;87.82
71109;BME280;59614;51.012;-1.648;2023-07-30T04:14:39;100202.25;;;15.23;88.28
71109;BME280;59614;51.012;-1.648;2023-07-30T04:17:05;100204.41;;;15.36;88.42
71109;BME280;59614;51.012;-1.648;2023-07-30T04:19:30;100203.22;;;15.43;88.22
71109;BME280;59614;51.012;-1.648;2023-07-30T04:21:56;100209.56;;;15.18;88.60
71109;BME280;59614;51.012;-1.648;2023-07-30T04:24:21;100207.06;;;15.13;88.49
71109;BME280;59614;51.012;-1.648;2023-07-30T04:26:47;100209.56;;;15.18;87.98
71109;BME280;59614;51.012;-1.648;2023-07-30T04:29:12;100214.44;;;15.29;88.83
71109;BME280;59614;51.012;-1.648;2023-07-30T04:31:39;100214.72;;;15.21;89.20
71109;BME280;59614;51.012;-1.648;2023-07-30T04:34:04;100219.81;;;15.27;88.63
71109;BME280;59614;51.012;-1.648;2023-07-30T04:36:30;100216.22;;;15.28;88.57
71109;BME280;59614;51.012;-1.648;2023-07-30T04:38:55;100213.13;;;15.39;88.37
71109;BME280;59614;51.012;-1.648;2023-07-30T04:41:21;100217.53;;;15.18;87.88
71109;BME280;59614;51.012;-1.648;2023-07-30T04:43:46;100229.75;;;15.22;89.01
71109;BME280;59614;51.012;-1.648;2023-07-30T04:46:12;100219.94;;;15.01;88.99
71109;BME280;59614;51.012;-1.648;2023-07-30T04:48:37;100234.84;;;15.28;89.17
71109;BME280;59614;51.012;-1.648;2023-07-30T04:51:03;100228.59;;;15.29;89.08
71109;BME280;59614;51.012;-1.648;2023-07-30T04:53:28;100223.66;;;15.42;88.89
71109;BME280;59614;51.012;-1.648;2023-07-30T04:55:57;100241.34;;;15.43;87.63
71109;BME280;59614;51.012;-1.648;2023-07-30T04:58:24;100229.34;;;15.55;88.50
71109;BME280;59614;51.012;-1.648;2023-07-30T05:00:49;100239.97;;;15.55;87.51
71109;BME280;59614;51.012;-1.648;2023-07-30T05:03:15;100237.13;;;15.38;88.52
71109;BME280;59614;51.012;-1.648;2023-07-30T05:05:41;100242.59;;;15.57;87.71
71109;BME280;59614;51.012;-1.648;2023-07-30T05:08:07;100251.72;;;15.50;87.60
71109;BME280;59614;51.012;-1.648;2023-07-30T05:10:32;100236.03;;;15.43;87.22
71109;BME280;59614;51.012;-1.648;2023-07-30T05:12:58;100238.00;;;15.60;87.91
71109;BME280;59614;51.012;-1.648;2023-07-30T05:15:23;100242.78;;;15.52;88.05
71109;BME280;59614;51.012;-1.648;2023-07-30T05:17:49;100248.50;;;15.41;87.21
71109;BME280;59614;51.012;-1.648;2023-07-30T05:20:14;100255.59;;;15.65;86.79
71109;BME280;59614;51.012;-1.648;2023-07-30T05:22:39;100258.19;;;15.66;86.92
71109;BME280;59614;51.012;-1.648;2023-07-30T05:25:05;100242.34;;;15.63;87.21
71109;BME280;59614;51.012;-1.648;2023-07-30T05:27:31;100246.91;;;15.59;87.27
71109;BME280;59614;51.012;-1.648;2023-07-30T05:29:57;100250.88;;;15.49;87.69
71109;BME280;59614;51.012;-1.648;2023-07-30T05:32:22;100254.47;;;15.48;87.75
71109;BME280;59614;51.012;-1.648;2023-07-30T05:34:48;100248.50;;;15.19;89.01
71109;BME280;59614;51.012;-1.648;2023-07-30T05:37:13;100248.22;;;15.49;88.21
71109;BME280;59614;51.012;-1.648;2023-07-30T05:39:39;100253.88;;;15.64;87.48
71109;BME280;59614;51.012;-1.648;2023-07-30T05:42:04;100245.63;;;15.70;86.95
71109;BME280;59614;51.012;-1.648;2023-07-30T05:44:29;100245.72;;;15.67;87.02
71109;BME280;59614;51.012;-1.648;2023-07-30T05:46:55;100240.22;;;15.71;87.31
71109;BME280;59614;51.012;-1.648;2023-07-30T05:49:20;100239.38;;;15.71;86.81
71109;BME280;59614;51.012;-1.648;2023-07-30T05:51:46;100248.53;;;15.86;87.68
71109;BME280;59614;51.012;-1.648;2023-07-30T05:54:12;100246.66;;;15.66;87.19
71109;BME280;59614;51.012;-1.648;2023-07-30T05:56:38;100247.09;;;15.77;87.19
71109;BME280;59614;51.012;-1.648;2023-07-30T05:59:03;100251.56;;;15.99;87.37
71109;BME280;59614;51.012;-1.648;2023-07-30T06:01:28;100253.94;;;15.83;86.94
71109;BME280;59614;51.012;-1.648;2023-07-30T06:03:54;100244.44;;;15.99;87.59
71109;BME280;59614;51.012;-1.648;2023-07-30T06:06:19;100247.09;;;15.77;86.76
71109;BME280;59614;51.012;-1.648;2023-07-30T06:08:52;100246.53;;;15.69;87.63
71109;BME280;59614;51.012;-1.648;2023-07-30T06:11:18;100251.00;;;15.90;87.83
71109;BME280;59614;51.012;-1.648;2023-07-30T06:13:43;100248.31;;;15.92;86.90
71109;BME280;59614;51.012;-1.648;2023-07-30T06:16:09;100250.69;;;16.20;87.26
71109;BME280;59614;51.012;-1.648;2023-07-30T06:18:35;100252.63;;;15.95;85.88
71109;BME280;59614;51.012;-1.648;2023-07-30T06:21:00;100250.13;;;16.33;85.60
71109;BME280;59614;51.012;-1.648;2023-07-30T06:23:25;100252.66;;;16.15;85.98
71109;BME280;59614;51.012;-1.648;2023-07-30T06:25:51;100252.75;;;15.92;86.48
71109;BME280;59614;51.012;-1.648;2023-07-30T06:28:16;100253.47;;;16.17;87.49
71109;BME280;59614;51.012;-1.648;2023-07-30T06:30:42;100250.13;;;16.33;86.82
71109;BME280;59614;51.012;-1.648;2023-07-30T06:33:07;100255.13;;;16.41;86.53
71109;BME280;59614;51.012;-1.648;2023-07-30T06:35:33;100258.50;;;16.24;86.20
71109;BME280;59614;51.012;-1.648;2023-07-30T06:37:58;100251.66;;;16.39;87.11
71109;BME280;59614;51.012;-1.648;2023-07-30T06:40:24;100259.09;;;16.51;86.21
71109;BME280;59614;51.012;-1.648;2023-07-30T06:42:49;100265.59;;;16.66;85.93
71109;BME280;59614;51.012;-1.648;2023-07-30T06:45:14;100265.78;;;16.41;85.48
71109;BME280;59614;51.012;-1.648;2023-07-30T06:47:40;100261.72;;;16.52;86.22
71109;BME280;59614;51.012;-1.648;2023-07-30T06:50:06;100274.13;;;16.54;86.02
71109;BME280;59614;51.012;-1.648;2023-07-30T06:52:34;100264.81;;;16.62;86.35
71109;BME280;59614;51.012;-1.648;2023-07-30T06:55:01;100264.38;;;16.52;85.89
71109;BME280;59614;51.012;-1.648;2023-07-30T06:57:28;100272.28;;;16.95;85.66
71109;BME280;59614;51.012;-1.648;2023-07-30T06:59:54;100255.72;;;17.08;84.32
71109;BME280;59614;51.012;-1.648;2023-07-30T07:02:19;100256.44;;;17.11;83.96
71109;BME280;59614;51.012;-1.648;2023-07-30T07:04:44;100261.06;;;17.08;83.64
71109;BME280;59614;51.012;-1.648;2023-07-30T07:07:10;100280.22;;;17.35;83.89
71109;BME280;59614;51.012;-1.648;2023-07-30T07:09:35;100271.88;;;17.24;83.04
71109;BME280;59614;51.012;-1.648;2023-07-30T07:12:01;100266.97;;;17.34;81.84
71109;BME280;59614;51.012;-1.648;2023-07-30T07:14:26;100278.81;;;17.47;82.12
71109;BME280;59614;51.012;-1.648;2023-07-30T07:16:53;100277.06;;;17.46;82.49
71109;BME280;59614;51.012;-1.648;2023-07-30T07:19:19;100278.47;;;17.72;80.48
71109;BME280;59614;51.012;-1.648;2023-07-30T07:21:44;100276.38;;;17.98;80.09
71109;BME280;59614;51.012;-1.648;2023-07-30T07:24:09;100270.00;;;17.82;79.24
71109;BME280;59614;51.012;-1.648;2023-07-30T07:26:35;100276.19;;;17.65;79.30
71109;BME280;59614;51.012;-1.648;2023-07-30T07:29:00;100278.91;;;17.82;80.63
71109;BME280;59614;51.012;-1.648;2023-07-30T07:31:26;100265.00;;;17.75;78.67
71109;BME280;59614;51.012;-1.648;2023-07-30T07:33:52;100286.81;;;17.84;79.83
71109;BME280;59614;51.012;-1.648;2023-07-30T07:36:18;100283.44;;;17.99;79.19
71109;BME280;59614;51.012;-1.648;2023-07-30T07:38:43;100296.00;;;19.03;75.89
71109;BME280;59614;51.012;-1.648;2023-07-30T07:41:14;100294.72;;;19.10;74.21
71109;BME280;59614;51.012;-1.648;2023-07-30T07:43:40;100300.16;;;18.91;75.02
71109;BME280;59614;51.012;-1.648;2023-07-30T07:46:06;100295.69;;;18.91;76.01
71109;BME280;59614;51.012;-1.648;2023-07-30T07:48:41;100297.56;;;18.89;75.89
71109;BME280;59614;51.012;-1.648;2023-07-30T07:51:07;100304.34;;;18.79;76.39
71109;BME280;59614;51.012;-1.648;2023-07-30T07:53:32;100303.56;;;18.42;76.23
71109;BME280;59614;51.012;-1.648;2023-07-30T07:55:58;100307.41;;;18.71;76.70
71109;BME280;59614;51.012;-1.648;2023-07-30T07:58:23;100306.69;;;19.03;77.09
71109;BME280;59614;51.012;-1.648;2023-07-30T08:00:48;100300.06;;;19.10;75.66
71109;BME280;59614;51.012;-1.648;2023-07-30T08:03:14;100293.78;;;20.07;72.07
71109;BME280;59614;51.012;-1.648;2023-07-30T08:05:39;100296.41;;;20.23;69.96
71109;BME280;59614;51.012;-1.648;2023-07-30T08:08:05;100288.88;;;20.30;70.05
71109;BME280;59614;51.012;-1.648;2023-07-30T08:10:30;100308.66;;;19.65;70.31
71109;BME280;59614;51.012;-1.648;2023-07-30T08:12:56;100303.13;;;19.68;71.98
71109;BME280;59614;51.012;-1.648;2023-07-30T08:15:21;100300.78;;;20.10;70.19
71109;BME280;59614;51.012;-1.648;2023-07-30T08:17:47;100294.91;;;20.64;68.90
71109;BME280;59614;51.012;-1.648;2023-07-30T08:20:12;100295.28;;;19.97;69.28
71109;BME280;59614;51.012;-1.648;2023-07-30T08:22:37;100304.50;;;19.59;69.95
71109;BME280;59614;51.012;-1.648;2023-07-30T08:25:03;100301.66;;;19.78;70.48
71109;BME280;59614;51.012;-1.648;2023-07-30T08:27:29;100308.91;;;19.44;71.80
71109;BME280;59614;51.012;-1.648;2023-07-30T08:29:54;100297.00;;;19.34;72.70
71109;BME280;59614;51.012;-1.648;2023-07-30T08:32:19;100304.09;;;19.99;70.26
71109;BME280;59614;51.012;-1.648;2023-07-30T08:34:45;100316.44;;;19.69;70.31
71109;BME280;59614;51.012;-1.648;2023-07-30T08:37:10;100317.72;;;19.46;73.04
71109;BME280;59614;51.012;-1.648;2023-07-30T08:39:36;100327.03;;;19.39;74.31
71109;BME280;59614;51.012;-1.648;2023-07-30T08:42:02;100323.56;;;19.37;76.22
71109;BME280;59614;51.012;-1.648;2023-07-30T08:44:28;100330.31;;;19.44;77.00
71109;BME280;59614;51.012;-1.648;2023-07-30T08:46:54;100322.81;;;19.01;78.84
71109;BME280;59614;51.012;-1.648;2023-07-30T08:49:19;100321.81;;;19.20;83.45
71109;BME280;59614;51.012;-1.648;2023-07-30T08:51:45;100316.28;;;19.23;84.12
71109;BME280;59614;51.012;-1.648;2023-07-30T08:54:14;100318.38;;;19.18;86.25
71109;BME280;59614;51.012;-1.648;2023-07-30T08:56:41;100306.53;;;19.87;86.54
71109;BME280;59614;51.012;-1.648;2023-07-30T08:59:07;100306.34;;;19.58;86.26
71109;BME280;59614;51.012;-1.648;2023-07-30T09:01:37;100305.13;;;19.64;86.49
71109;BME280;59614;51.012;-1.648;2023-07-30T09:04:03;100308.97;;;19.26;89.73
71109;BME280;59614;51.012;-1.648;2023-07-30T09:06:29;100307.41;;;19.22;89.25
71109;BME280;59614;51.012;-1.648;2023-07-30T09:08:55;100308.38;;;19.21;87.73
71109;BME280;59614;51.012;-1.648;2023-07-30T09:11:25;100304.66;;;18.90;89.54
71109;BME280;59614;51.012;-1.648;2023-07-30T09:13:53;100307.66;;;19.02;89.08
71109;BME280;59614;51.012;-1.648;2023-07-30T09:16:19;100305.44;;;18.75;90.25
71109;BME280;59614;51.012;-1.648;2023-07-30T09:18:45;100313.63;;;18.54;90.76
71109;BME280;59614;51.012;-1.648;2023-07-30T09:21:13;100306.47;;;18.55;92.85
71109;BME280;59614;51.012;-1.648;2023-07-30T09:23:43;100302.91;;;18.89;90.71
71109;BME280;59614;51.012;-1.648;2023-07-30T09:26:09;100310.22;;;19.03;91.02
71109;BME280;59614;51.012;-1.648;2023-07-30T09:28:35;100303.75;;;18.56;89.75
71109;BME280;59614;51.012;-1.648;2023-07-30T09:31:04;100309.22;;;18.71;90.96
71109;BME280;59614;51.012;-1.648;2023-07-30T09:33:34;100301.75;;;18.95;90.02
71109;BME280;59614;51.012;-1.648;2023-07-30T09:36:03;100295.19;;;18.83;89.08
71109;BME280;59614;51.012;-1.648;2023-07-30T09:38:29;100299.56;;;18.68;89.09
71109;BME280;59614;51.012;-1.648;2023-07-30T09:41:01;100309.22;;;18.35;91.53
71109;BME280;59614;51.012;-1.648;2023-07-30T09:43:34;100309.41;;;18.32;93.43
71109;BME280;59614;51.012;-1.648;2023-07-30T09:46:05;100301.31;;;18.51;94.84
71109;BME280;59614;51.012;-1.648;2023-07-30T09:48:32;100296.91;;;18.50;93.77
71109;BME280;59614;51.012;-1.648;2023-07-30T09:51:00;100302.47;;;18.63;93.45
71109;BME280;59614;51.012;-1.648;2023-07-30T09:53:29;100300.91;;;18.42;92.14
71109;BME280;59614;51.012;-1.648;2023-07-30T09:55:55;100300.81;;;18.43;92.63
71109;BME280;59614;51.012;-1.648;2023-07-30T09:58:20;100295.72;;;18.56;95.05
71109;BME280;59614;51.012;-1.648;2023-07-30T10:00:47;100295.09;;;18.68;93.06
71109;BME280;59614;51.012;-1.648;2023-07-30T10:03:15;100288.94;;;18.66;91.41
71109;BME280;59614;51.012;-1.648;2023-07-30T10:05:44;100283.03;;;18.77;93.28
71109;BME280;59614;51.012;-1.648;2023-07-30T10:08:14;100285.84;;;18.92;91.42
71109;BME280;59614;51.012;-1.648;2023-07-30T10:10:41;100291.91;;;18.95;92.28
71109;BME280;59614;51.012;-1.648;2023-07-30T10:13:09;100282.63;;;19.03;93.90
71109;BME280;59614;51.012;-1.648;2023-07-30T10:15:37;100287.38;;;18.80;93.90
71109;BME280;59614;51.012;-1.648;2023-07-30T10:18:03;100290.03;;;18.62;94.13
71109;BME280;59614;51.012;-1.648;2023-07-30T10:20:30;100277.97;;;18.55;95.91
71109;BME280;59614;51.012;-1.648;2023-07-30T10:23:00;100273.56;;;18.88;95.55
71109;BME280;59614;51.012;-1.648;2023-07-30T10:25:29;100276.16;;;19.23;93.61
71109;BME280;59614;51.012;-1.648;2023-07-30T10:27:55;100277.22;;;19.36;92.98
71109;BME280;59614;51.012;-1.648;2023-07-30T10:30:21;100275.53;;;19.02;91.16
71109;BME280;59614;51.012;-1.648;2023-07-30T10:35:43;100287.41;;;19.29;93.00
71109;BME280;59614;51.012;-1.648;2023-07-30T10:38:22;100285.00;;;19.57;91.94
71109;BME280;59614;51.012;-1.648;2023-07-30T10:41:06;100275.22;;;19.72;91.97
71109;BME280;59614;51.012;-1.648;2023-07-30T10:43:39;100275.59;;;19.66;90.21
71109;BME280;59614;51.012;-1.648;2023-07-30T10:46:06;100274.72;;;19.97;90.01
71109;BME280;59614;51.012;-1.648;2023-07-30T10:48:33;100277.13;;;20.02;88.01
71109;BME280;59614;51.012;-1.648;2023-07-30T10:51:04;100279.16;;;20.13;88.91
71109;BME280;59614;51.012;-1.648;2023-07-30T10:53:30;100273.16;;;20.54;88.06
71109;BME280;59614;51.012;-1.648;2023-07-30T10:56:00;100282.22;;;20.37;86.65
71109;BME280;59614;51.012;-1.648;2023-07-30T10:58:28;100272.03;;;19.97;88.44
71109;BME280;59614;51.012;-1.648;2023-07-30T11:00:54;100273.06;;;19.95;87.38
71109;BME280;59614;51.012;-1.648;2023-07-30T11:03:20;100272.56;;;20.18;88.83
71109;BME280;59614;51.012;-1.648;2023-07-30T11:05:48;100281.00;;;20.27;87.72
71109;BME280;59614;51.012;-1.648;2023-07-30T11:08:14;100273.25;;;20.22;87.70
71109;BME280;59614;51.012;-1.648;2023-07-30T11:10:44;100276.31;;;20.46;87.30
71109;BME280;59614;51.012;-1.648;2023-07-30T11:13:11;100273.34;;;20.20;87.61
71109;BME280;59614;51.012;-1.648;2023-07-30T11:15:42;100272.63;;;20.33;87.91
71109;BME280;59614;51.012;-1.648;2023-07-30T11:18:08;100274.84;;;20.41;89.21
71109;BME280;59614;51.012;-1.648;2023-07-30T11:20:33;100266.66;;;20.28;88.39
71109;BME280;59614;51.012;-1.648;2023-07-30T11:22:59;100264.88;;;20.28;88.63
71109;BME280;59614;51.012;-1.648;2023-07-30T11:25:24;100273.34;;;20.51;88.38
71109;BME280;59614;51.012;-1.648;2023-07-30T11:27:50;100268.00;;;20.20;88.87
71109;BME280;59614;51.012;-1.648;2023-07-30T11:30:16;100275.13;;;20.36;89.64
71109;BME280;59614;51.012;-1.648;2023-07-30T11:32:42;100270.00;;;20.47;88.19
71109;BME280;59614;51.012;-1.648;2023-07-30T11:35:13;100268.69;;;20.69;89.08
71109;BME280;59614;51.012;-1.648;2023-07-30T11:37:40;100260.09;;;20.78;89.28
71109;BME280;59614;51.012;-1.648;2023-07-30T11:40:08;100259.69;;;20.99;89.46
71109;BME280;59614;51.012;-1.648;2023-07-30T11:42:35;100261.72;;;20.81;88.44
71109;BME280;59614;51.012;-1.648;2023-07-30T11:45:20;100260.41;;;20.88;88.54
71109;BME280;59614;51.012;-1.648;2023-07-30T11:47:46;100259.22;;;21.07;88.44
71109;BME280;59614;51.012;-1.648;2023-07-30T11:50:12;100266.19;;;20.66;89.08
71109;BME280;59614;51.012;-1.648;2023-07-30T11:52:54;100266.13;;;20.37;89.45
71109;BME280;59614;51.012;-1.648;2023-07-30T11:55:19;100265.50;;;20.62;92.60
71109;BME280;59614;51.012;-1.648;2023-07-30T11:57:45;100263.63;;;20.34;92.33
71109;BME280;59614;51.012;-1.648;2023-07-30T12:00:11;100259.56;;;20.72;93.56
71109;BME280;59614;51.012;-1.648;2023-07-30T12:02:38;100267.31;;;20.47;94.77
71109;BME280;59614;51.012;-1.648;2023-07-30T12:05:04;100258.50;;;20.15;94.78
71109;BME280;59614;51.012;-1.648;2023-07-30T12:07:32;100268.59;;;19.95;97.44
71109;BME280;59614;51.012;-1.648;2023-07-30T12:10:09;100271.78;;;20.02;98.00
71109;BME280;59614;51.012;-1.648;2023-07-30T12:12:35;100280.06;;;19.81;98.83
71109;BME280;59614;51.012;-1.648;2023-07-30T12:15:00;100277.72;;;19.75;100.00
71109;BME280;59614;51.012;-1.648;2023-07-30T12:17:26;100273.00;;;19.80;100.00
71109;BME280;59614;51.012;-1.648;2023-07-30T12:19:51;100273.00;;;19.64;100.00
71109;BME280;59614;51.012;-1.648;2023-07-30T12:22:17;100263.06;;;19.50;100.00
71109;BME280;59614;51.012;-1.648;2023-07-30T12:24:42;100255.53;;;19.73;100.00
71109;BME280;59614;51.012;-1.648;2023-07-30T12:27:07;100269.88;;;19.72;100.00
71109;BME280;59614;51.012;-1.648;2023-07-30T12:29:33;100268.34;;;19.36;100.00
71109;BME280;59614;51.012;-1.648;2023-07-30T12:31:58;100265.94;;;19.47;100.00
71109;BME280;59614;51.012;-1.648;2023-07-30T12:34:24;100280.06;;;19.49;100.00
71109;BME280;59614;51.012;-1.648;2023-07-30T12:36:49;100279.03;;;19.36;100.00
71109;BME280;59614;51.012;-1.648;2023-07-30T12:39:15;100272.28;;;19.60;100.00